createdAt,value
2022-11-14T00:01:10.820Z,84.28
2022-11-14T00:16:10.758Z,84.03
2022-11-14T00:31:10.814Z,86.85
2022-11-14T00:46:11.043Z,85.56
2022-11-14T01:01:10.989Z,84.19
2022-11-14T01:16:10.935Z,89.94
2022-11-14T01:31:10.940Z,86.60
2022-11-14T01:46:11.025Z,90.24
2022-11-14T02:01:11.106Z,88.67
2022-11-14T02:16:11.081Z,81.12
2022-11-14T02:31:11.188Z,89.12
2022-11-14T02:46:11.065Z,93.61
2022-11-14T03:01:20.624Z,92.12
2022-11-14T03:16:11.089Z,91.87
2022-11-14T03:31:11.236Z,86.97
2022-11-14T03:46:11.315Z,90.31
2022-11-14T04:01:11.401Z,92.65
2022-11-14T04:16:11.257Z,94.67
2022-11-14T04:31:11.328Z,82.52
2022-11-14T04:46:11.377Z,88.48
2022-11-14T05:01:11.538Z,91.46
2022-11-14T05:16:11.648Z,99.05
2022-11-14T05:31:11.479Z,89.85
2022-11-14T05:46:11.498Z,75.26
2022-11-14T06:01:11.593Z,88.82
2022-11-14T06:16:11.584Z,91.86
2022-11-14T06:31:11.595Z,93.55
2022-11-14T06:46:11.716Z,82.07
2022-11-14T07:01:11.671Z,97.61
2022-11-14T07:16:11.692Z,133.07
2022-11-14T07:31:11.678Z,135.00
2022-11-14T07:46:11.726Z,135.00
2022-11-14T08:01:11.726Z,166.49
2022-11-14T08:16:13.772Z,242.68
2022-11-14T08:31:11.701Z,144.24
2022-11-14T08:46:11.800Z,149.16
2022-11-14T09:01:11.957Z,146.93
2022-11-14T09:16:11.942Z,142.52
2022-11-14T09:31:11.921Z,144.04
2022-11-14T09:46:12.045Z,151.69
2022-11-14T10:01:11.838Z,156.50
2022-11-14T10:16:12.031Z,152.24
2022-11-14T10:31:11.911Z,132.87
2022-11-14T10:46:12.088Z,159.38
2022-11-14T11:01:12.162Z,146.40
2022-11-14T11:16:12.108Z,186.47
2022-11-14T11:31:12.280Z,132.12
2022-11-14T11:46:12.069Z,141.87
2022-11-14T12:01:12.402Z,142.80
2022-11-14T12:16:13.389Z,147.45
2022-11-14T12:31:12.294Z,143.79
2022-11-14T12:46:12.260Z,165.52
2022-11-14T13:01:12.463Z,149.94
2022-11-14T13:16:12.416Z,126.56
2022-11-14T13:31:12.529Z,145.92
2022-11-14T13:46:12.564Z,174.58
2022-11-14T14:01:12.575Z,160.57
2022-11-14T14:16:12.572Z,158.77
2022-11-14T14:31:12.550Z,164.51
2022-11-14T14:46:12.622Z,137.14
2022-11-14T15:01:12.653Z,151.43
2022-11-14T15:16:12.784Z,140.50
2022-11-14T15:31:12.685Z,154.93
2022-11-14T15:46:15.101Z,163.34
2022-11-14T16:01:12.912Z,138.49
2022-11-14T16:16:12.781Z,126.68
2022-11-14T16:31:12.912Z,134.38
2022-11-14T16:46:12.804Z,129.77
2022-11-14T17:01:16.238Z,136.70
2022-11-14T17:16:12.953Z,150.85
2022-11-14T17:31:13.008Z,142.72
2022-11-14T17:46:15.838Z,148.25
2022-11-14T18:01:13.120Z,157.87
2022-11-14T18:16:13.062Z,169.90
2022-11-14T18:31:13.253Z,174.84
2022-11-14T18:46:13.168Z,173.83
2022-11-14T19:01:13.183Z,168.88
2022-11-14T19:16:13.056Z,185.00
2022-11-14T19:31:13.186Z,187.19
2022-11-14T19:46:13.121Z,181.34
2022-11-14T20:01:13.328Z,200.83
2022-11-14T20:16:13.245Z,175.27
2022-11-14T20:31:13.278Z,184.03
2022-11-14T20:46:13.320Z,189.17
2022-11-14T21:01:13.549Z,185.92
2022-11-14T21:16:13.491Z,169.73
2022-11-14T21:31:13.490Z,175.89
2022-11-14T21:46:13.508Z,179.43
2022-11-14T22:01:13.483Z,155.53
2022-11-14T22:16:13.581Z,164.82
2022-11-14T22:31:13.630Z,166.70
2022-11-14T22:46:13.463Z,176.75
2022-11-14T23:01:13.648Z,164.39
2022-11-14T23:16:13.624Z,177.67
2022-11-14T23:31:13.618Z,165.44
2022-11-14T23:46:13.533Z,156.33
